createdAt,value
2022-11-03T00:00:56.125Z,88.22
2022-11-03T00:01:56.274Z,89.05
2022-11-03T00:02:56.136Z,88.64
2022-11-03T00:03:56.104Z,88.22
2022-11-03T00:04:56.127Z,88.57
2022-11-03T00:05:56.086Z,87.60
2022-11-03T00:06:56.084Z,87.92
2022-11-03T00:07:56.075Z,88.43
2022-11-03T00:08:56.067Z,88.64
2022-11-03T00:09:56.078Z,88.53
2022-11-03T00:10:56.042Z,89.36
2022-11-03T00:11:56.041Z,89.36
2022-11-03T00:12:56.038Z,89.87
2022-11-03T00:13:56.047Z,90.08
2022-11-03T00:14:56.038Z,89.56
2022-11-03T00:15:56.018Z,89.56
2022-11-03T00:16:56.016Z,91.52
2022-11-03T00:17:56.005Z,91.52
2022-11-03T00:18:55.994Z,91.32
2022-11-03T00:19:56.011Z,91.01
2022-11-03T00:20:55.987Z,90.80
2022-11-03T00:21:55.985Z,89.46
2022-11-03T00:22:55.974Z,87.95
2022-11-03T00:23:55.971Z,87.81
2022-11-03T00:24:55.970Z,87.29
2022-11-03T00:25:55.947Z,87.44
2022-11-03T00:26:55.944Z,87.54
2022-11-03T00:27:55.995Z,86.44
2022-11-03T00:28:56.913Z,86.51
2022-11-03T00:29:55.927Z,86.71
2022-11-03T00:30:55.942Z,86.34
2022-11-03T00:31:55.902Z,87.48
2022-11-03T00:32:55.902Z,87.27
2022-11-03T00:33:55.902Z,87.00
2022-11-03T00:34:55.885Z,87.79
2022-11-03T00:35:55.914Z,89.17
2022-11-03T00:36:55.875Z,89.59
2022-11-03T00:37:55.865Z,89.89
2022-11-03T00:38:55.861Z,90.20
2022-11-03T00:39:55.863Z,90.10
2022-11-03T00:40:55.853Z,89.48
2022-11-03T00:41:55.857Z,89.38
2022-11-03T00:42:55.841Z,89.38
2022-11-03T00:43:55.833Z,89.38
2022-11-03T00:44:55.826Z,89.01
2022-11-03T00:45:55.830Z,88.04
2022-11-03T00:46:55.838Z,88.04
2022-11-03T00:47:55.830Z,89.38
2022-11-03T00:48:55.794Z,87.15
2022-11-03T00:49:55.802Z,87.46
2022-11-03T00:50:55.790Z,87.97
2022-11-03T00:51:55.794Z,88.90
2022-11-03T00:52:55.790Z,89.56
2022-11-03T00:53:55.802Z,89.50
2022-11-03T00:54:55.765Z,90.33
2022-11-03T00:55:55.757Z,90.80
2022-11-03T00:56:55.750Z,91.74
2022-11-03T00:57:55.754Z,90.39
2022-11-03T00:58:55.757Z,89.98
2022-11-03T00:59:55.742Z,88.94
2022-11-03T01:00:55.763Z,88.94
2022-11-03T01:01:55.877Z,88.53
2022-11-03T01:02:55.722Z,88.53
2022-11-03T01:03:55.719Z,89.56
2022-11-03T01:04:55.723Z,88.88
2022-11-03T01:05:55.707Z,88.22
2022-11-03T01:06:55.698Z,89.77
2022-11-03T01:07:55.727Z,89.46
2022-11-03T01:08:55.685Z,89.56
2022-11-03T01:09:55.690Z,89.67
2022-11-03T01:10:55.666Z,90.29
2022-11-03T01:11:55.681Z,90.19
2022-11-03T01:12:55.666Z,90.60
2022-11-03T01:13:55.649Z,90.50
2022-11-03T01:14:55.665Z,90.70
2022-11-03T01:15:55.634Z,90.14
2022-11-03T01:16:55.642Z,90.04
2022-11-03T01:17:55.625Z,89.83
2022-11-03T01:18:55.646Z,89.62
2022-11-03T01:19:55.624Z,89.62
2022-11-03T01:20:55.613Z,89.62
2022-11-03T01:21:55.606Z,89.62
2022-11-03T01:22:55.608Z,88.39
2022-11-03T01:23:55.582Z,89.22
2022-11-03T01:24:55.576Z,88.70
2022-11-03T01:25:55.578Z,89.42
2022-11-03T01:26:55.569Z,88.59
2022-11-03T01:27:55.816Z,89.11
2022-11-03T01:28:55.549Z,89.07
2022-11-03T01:29:55.557Z,88.55
2022-11-03T01:30:55.537Z,88.90
2022-11-03T01:31:55.533Z,89.17
2022-11-03T01:32:55.529Z,89.17
2022-11-03T01:33:55.543Z,89.28
2022-11-03T01:34:55.529Z,89.07
2022-11-03T01:35:55.512Z,88.86
2022-11-03T01:36:55.501Z,88.45
2022-11-03T01:37:55.505Z,89.07
2022-11-03T01:38:55.489Z,89.59
2022-11-03T01:39:55.490Z,90.00
2022-11-03T01:40:55.466Z,90.52
2022-11-03T01:41:55.470Z,91.38
2022-11-03T01:42:55.486Z,91.59
2022-11-03T01:43:55.461Z,92.42
2022-11-03T01:44:55.474Z,92.93
2022-11-03T01:45:55.445Z,93.35
2022-11-03T01:46:55.425Z,93.35
2022-11-03T01:47:55.478Z,93.45
2022-11-03T01:48:55.426Z,93.66
2022-11-03T01:49:55.415Z,93.87
2022-11-03T01:50:55.404Z,93.35
2022-11-03T01:51:55.397Z,93.55
2022-11-03T01:52:55.421Z,93.55
2022-11-03T01:53:55.390Z,92.48
2022-11-03T01:54:55.423Z,92.48
2022-11-03T01:55:55.389Z,91.96
2022-11-03T01:56:55.372Z,91.13
2022-11-03T01:57:55.354Z,91.30
2022-11-03T01:58:55.356Z,90.68
2022-11-03T01:59:55.361Z,90.16
2022-11-03T02:00:55.382Z,90.06
2022-11-03T02:05:06.769Z,88.92
2022-11-03T02:06:07.883Z,89.13
2022-11-03T02:07:07.873Z,88.51
2022-11-03T02:08:22.654Z,88.51
2022-11-03T02:09:07.857Z,88.61
2022-11-03T02:10:07.874Z,89.34
2022-11-03T02:11:07.848Z,89.44
2022-11-03T02:12:07.837Z,89.95
2022-11-03T02:13:08.025Z,90.16
2022-11-03T02:14:07.861Z,90.12
2022-11-03T02:15:07.824Z,90.06
2022-11-03T02:16:07.811Z,90.02
2022-11-03T02:17:07.811Z,89.50
2022-11-03T02:18:07.797Z,89.61
2022-11-03T02:19:07.788Z,89.71
2022-11-03T02:20:07.784Z,89.71
2022-11-03T02:21:07.785Z,89.71
2022-11-03T02:22:07.771Z,89.67
2022-11-03T02:23:08.281Z,89.46
2022-11-03T02:24:07.756Z,89.15
2022-11-03T02:25:07.753Z,89.46
2022-11-03T02:26:07.763Z,89.36
2022-11-03T02:27:07.745Z,89.25
2022-11-03T02:28:07.753Z,88.43
2022-11-03T02:29:07.730Z,88.95
2022-11-03T02:30:07.721Z,89.15
2022-11-03T02:31:07.729Z,89.46
2022-11-03T02:32:07.689Z,89.36
2022-11-03T02:33:08.103Z,89.98
2022-11-03T02:34:07.688Z,90.19
2022-11-03T02:35:07.687Z,90.39
2022-11-03T02:36:07.676Z,89.67
2022-11-03T02:37:07.665Z,89.77
2022-11-03T02:38:07.661Z,89.94
2022-11-03T02:39:07.660Z,89.32
2022-11-03T02:40:07.654Z,89.83
2022-11-03T02:41:07.648Z,89.94
2022-11-03T02:42:07.648Z,89.73
2022-11-03T02:43:07.885Z,89.42
2022-11-03T02:44:07.625Z,89.42
2022-11-03T02:45:07.642Z,89.98
2022-11-03T02:46:07.616Z,89.73
2022-11-03T02:47:07.618Z,88.90
2022-11-03T02:48:07.600Z,89.42
2022-11-03T02:49:07.588Z,88.59
2022-11-03T02:50:07.584Z,88.29
2022-11-03T02:51:07.580Z,88.59
2022-11-03T02:52:07.576Z,88.39
2022-11-03T02:53:07.944Z,89.11
2022-11-03T02:54:07.566Z,89.17
2022-11-03T02:55:07.553Z,89.17
2022-11-03T02:56:07.546Z,89.22
2022-11-03T02:57:07.526Z,88.59
2022-11-03T02:58:08.534Z,89.11
2022-11-03T02:59:07.538Z,88.80
2022-11-03T03:00:07.512Z,89.32
2022-11-03T03:01:07.544Z,89.07
2022-11-03T03:02:07.632Z,89.73
2022-11-03T03:03:08.063Z,89.11
2022-11-03T03:04:07.505Z,89.48
2022-11-03T03:05:07.477Z,90.97
2022-11-03T03:06:07.474Z,91.28
2022-11-03T03:07:07.466Z,91.38
2022-11-03T03:08:07.466Z,91.17
2022-11-03T03:09:07.465Z,90.66
2022-11-03T03:10:07.465Z,89.94
2022-11-03T03:11:07.441Z,89.62
2022-11-03T03:12:07.431Z,89.52
2022-11-03T03:13:07.821Z,89.17
2022-11-03T03:14:07.437Z,89.28
2022-11-03T03:15:07.425Z,89.17
2022-11-03T03:16:07.413Z,89.11
2022-11-03T03:17:07.401Z,88.65
2022-11-03T03:18:07.394Z,89.11
2022-11-03T03:19:07.389Z,89.07
2022-11-03T03:20:07.379Z,88.96
2022-11-03T03:21:07.372Z,89.42
2022-11-03T03:22:07.370Z,90.61
2022-11-03T03:23:11.299Z,90.76
2022-11-03T03:24:08.353Z,90.10
2022-11-03T03:25:07.367Z,89.79
2022-11-03T03:26:07.338Z,89.52
2022-11-03T03:27:07.337Z,89.48
2022-11-03T03:28:07.320Z,88.96
2022-11-03T03:29:07.317Z,88.35
2022-11-03T03:30:07.331Z,89.28
2022-11-03T03:31:07.305Z,88.24
2022-11-03T03:32:07.298Z,88.86
2022-11-03T03:33:07.531Z,89.07
2022-11-03T03:34:16.939Z,88.96
2022-11-03T03:35:09.297Z,88.86
2022-11-03T03:36:07.273Z,89.17
2022-11-03T03:37:07.269Z,88.24
2022-11-03T03:38:07.614Z,88.56
2022-11-03T03:39:07.247Z,88.56
2022-11-03T03:40:07.241Z,88.04
2022-11-03T03:41:10.699Z,87.52
2022-11-03T03:42:08.223Z,87.11
2022-11-03T03:43:07.239Z,87.73
2022-11-03T03:44:07.222Z,87.52
2022-11-03T03:45:07.206Z,87.32
2022-11-03T03:46:07.203Z,87.11
2022-11-03T03:47:07.196Z,87.63
2022-11-03T03:48:07.469Z,87.11
2022-11-03T03:49:07.196Z,87.32
2022-11-03T03:50:07.181Z,88.56
2022-11-03T03:51:07.169Z,89.69
2022-11-03T03:52:07.157Z,89.79
2022-11-03T03:53:07.149Z,89.79
2022-11-03T03:54:07.164Z,89.38
2022-11-03T03:55:07.137Z,89.17
2022-11-03T03:56:07.112Z,89.17
2022-11-03T03:57:07.116Z,89.28
2022-11-03T03:58:07.489Z,89.17
2022-11-03T03:59:07.117Z,88.35
2022-11-03T04:00:07.096Z,88.35
2022-11-03T04:01:07.154Z,88.35
2022-11-03T04:02:07.197Z,88.62
2022-11-03T04:03:07.081Z,89.17
2022-11-03T04:04:07.072Z,88.35
2022-11-03T04:05:07.073Z,88.14
2022-11-03T04:06:07.077Z,87.93
2022-11-03T04:07:07.053Z,87.73
2022-11-03T04:08:07.474Z,87.63
2022-11-03T04:09:07.046Z,87.52
2022-11-03T04:10:07.033Z,87.11
2022-11-03T04:11:07.049Z,87.52
2022-11-03T04:12:07.023Z,87.63
2022-11-03T04:13:07.019Z,87.83
2022-11-03T04:14:07.012Z,88.76
2022-11-03T04:15:07.005Z,89.17
2022-11-03T04:16:06.997Z,89.48
2022-11-03T04:17:06.992Z,90.00
2022-11-03T04:18:07.169Z,90.00
2022-11-03T04:19:06.976Z,91.54
2022-11-03T04:20:06.964Z,91.34
2022-11-03T04:21:06.961Z,91.34
2022-11-03T04:22:06.970Z,90.82
2022-11-03T04:23:06.943Z,91.24
2022-11-03T04:24:06.944Z,91.34
2022-11-03T04:25:06.933Z,90.51
2022-11-03T04:26:06.921Z,90.20
2022-11-03T04:27:07.934Z,89.85
2022-11-03T04:28:07.262Z,89.89
2022-11-03T04:29:06.913Z,89.65
2022-11-03T04:30:06.903Z,89.03
2022-11-03T04:31:06.893Z,89.34
2022-11-03T04:32:06.894Z,88.92
2022-11-03T04:33:06.889Z,89.85
2022-11-03T04:34:06.865Z,89.95
2022-11-03T04:35:06.865Z,89.85
2022-11-03T04:36:06.856Z,89.85
2022-11-03T04:37:06.862Z,89.34
2022-11-03T04:38:07.112Z,88.20
2022-11-03T04:39:06.842Z,88.72
2022-11-03T04:40:06.821Z,88.72
2022-11-03T04:41:06.829Z,88.82
2022-11-03T04:42:06.825Z,88.20
2022-11-03T04:43:07.180Z,88.31
2022-11-03T04:44:06.805Z,88.96
2022-11-03T04:45:06.793Z,89.34
2022-11-03T04:46:06.793Z,89.89
2022-11-03T04:47:06.797Z,89.38
2022-11-03T04:48:06.783Z,89.28
2022-11-03T04:49:06.777Z,89.28
2022-11-03T04:50:06.756Z,89.58
2022-11-03T04:51:06.761Z,89.48
2022-11-03T04:52:06.766Z,89.28
2022-11-03T04:53:06.938Z,89.38
2022-11-03T04:54:06.734Z,90.00
2022-11-03T04:55:06.733Z,89.75
2022-11-03T04:56:07.589Z,89.79
2022-11-03T04:57:07.737Z,90.41
2022-11-03T04:58:06.716Z,90.92
2022-11-03T04:59:06.702Z,90.20
2022-11-03T05:00:06.693Z,91.34
2022-11-03T05:01:06.726Z,91.13
2022-11-03T05:02:06.856Z,91.64
2022-11-03T05:03:06.812Z,91.54
2022-11-03T05:04:06.674Z,91.19
2022-11-03T05:05:06.669Z,91.24
2022-11-03T05:06:06.657Z,90.20
2022-11-03T05:07:06.653Z,89.85
2022-11-03T05:08:06.661Z,89.54
2022-11-03T05:09:06.640Z,89.23
2022-11-03T05:10:06.630Z,89.34
2022-11-03T05:11:06.608Z,89.34
2022-11-03T05:12:06.621Z,87.93
2022-11-03T05:13:06.813Z,88.82
2022-11-03T05:14:06.621Z,88.72
2022-11-03T05:15:06.597Z,88.92
2022-11-03T05:16:06.590Z,89.34
2022-11-03T05:17:06.610Z,89.95
2022-11-03T05:18:06.573Z,89.85
2022-11-03T05:19:07.526Z,89.23
2022-11-03T05:20:06.556Z,89.13
2022-11-03T05:21:06.645Z,89.75
2022-11-03T05:22:06.564Z,88.92
2022-11-03T05:23:06.913Z,89.29
2022-11-03T05:24:06.578Z,89.09
2022-11-03T05:25:06.520Z,89.19
2022-11-03T05:26:06.520Z,88.78
2022-11-03T05:27:06.512Z,88.78
2022-11-03T05:28:06.739Z,88.99
2022-11-03T05:29:06.508Z,88.78
2022-11-03T05:30:06.543Z,89.71
2022-11-03T05:31:06.476Z,90.01
2022-11-03T05:32:06.479Z,90.37
2022-11-03T05:33:06.464Z,90.12
2022-11-03T05:34:06.473Z,89.81
2022-11-03T05:35:06.448Z,89.71
2022-11-03T05:36:06.444Z,88.99
2022-11-03T05:37:06.542Z,88.26
2022-11-03T05:38:06.706Z,88.47
2022-11-03T05:39:06.436Z,87.54
2022-11-03T05:40:06.404Z,87.69
2022-11-03T05:41:06.409Z,91.30
2022-11-03T05:42:06.404Z,90.47
2022-11-03T05:43:11.973Z,90.16
2022-11-03T05:44:08.404Z,90.16
2022-11-03T05:45:06.378Z,91.50
2022-11-03T05:47:08.290Z,91.60
2022-11-03T05:48:06.645Z,91.44
2022-11-03T05:49:08.517Z,91.60
2022-11-03T05:50:07.103Z,92.02
2022-11-03T05:51:06.340Z,91.60
2022-11-03T05:52:06.324Z,91.66
2022-11-03T05:53:06.320Z,91.66
2022-11-03T05:54:06.320Z,92.18
2022-11-03T05:55:06.308Z,91.93
2022-11-03T05:56:06.303Z,91.66
2022-11-03T05:57:06.300Z,91.00
2022-11-03T05:58:06.505Z,90.08
2022-11-03T05:59:06.277Z,90.08
2022-11-03T06:00:06.285Z,90.01
2022-11-03T06:01:06.253Z,90.01
2022-11-03T06:02:06.323Z,89.87
2022-11-03T06:03:06.248Z,91.25
2022-11-03T06:04:06.242Z,91.11
2022-11-03T06:05:06.228Z,91.21
2022-11-03T06:06:06.248Z,91.11
2022-11-03T06:07:06.235Z,90.90
2022-11-03T06:08:06.570Z,91.11
2022-11-03T06:09:06.216Z,91.00
2022-11-03T06:10:06.203Z,91.00
2022-11-03T06:11:06.223Z,91.00
2022-11-03T06:12:06.198Z,90.59
2022-11-03T06:13:06.381Z,90.28
2022-11-03T06:14:06.168Z,89.77
2022-11-03T06:15:06.200Z,89.77
2022-11-03T06:16:06.164Z,90.28
2022-11-03T06:17:06.203Z,91.00
2022-11-03T06:18:06.156Z,91.21
2022-11-03T06:19:06.151Z,91.05
2022-11-03T06:20:06.131Z,91.56
2022-11-03T06:21:06.119Z,91.77
2022-11-03T06:22:06.146Z,91.15
2022-11-03T06:23:06.344Z,91.21
2022-11-03T06:24:06.104Z,91.21
2022-11-03T06:25:06.104Z,91.11
2022-11-03T06:26:06.095Z,91.11
2022-11-03T06:27:06.086Z,90.39
2022-11-03T06:28:06.096Z,89.87
2022-11-03T06:29:06.067Z,89.77
2022-11-03T06:30:06.060Z,89.05
2022-11-03T06:31:06.056Z,89.25
2022-11-03T06:32:06.051Z,89.09
2022-11-03T06:33:06.329Z,89.05
2022-11-03T06:34:06.036Z,89.05
2022-11-03T06:35:06.021Z,89.56
2022-11-03T06:36:06.067Z,89.46
2022-11-03T06:37:10.964Z,89.97
2022-11-03T06:38:08.015Z,89.56
2022-11-03T06:39:06.003Z,89.77
2022-11-03T06:40:05.992Z,89.46
2022-11-03T06:41:05.991Z,89.97
2022-11-03T06:42:05.976Z,89.25
2022-11-03T06:43:06.233Z,89.05
2022-11-03T06:44:05.975Z,88.74
2022-11-03T06:45:06.971Z,88.64
2022-11-03T06:46:05.953Z,88.33
2022-11-03T06:47:05.953Z,88.08
2022-11-03T06:48:05.940Z,89.67
2022-11-03T06:49:05.955Z,89.87
2022-11-03T06:50:05.931Z,89.77
2022-11-03T06:51:05.914Z,89.77
2022-11-03T06:52:05.919Z,90.18
2022-11-03T06:53:06.331Z,90.14
2022-11-03T06:54:05.896Z,90.24
2022-11-03T06:55:05.915Z,90.14
2022-11-03T06:56:05.895Z,90.34
2022-11-03T06:57:05.879Z,91.06
2022-11-03T06:58:05.868Z,91.17
2022-11-03T06:59:05.864Z,90.86
2022-11-03T07:00:28.504Z,90.86
2022-11-03T07:01:07.868Z,91.06
2022-11-03T07:02:05.909Z,91.27
2022-11-03T07:03:06.219Z,90.03
2022-11-03T07:04:05.823Z,89.73
2022-11-03T07:05:05.819Z,89.62
2022-11-03T07:06:05.819Z,89.58
2022-11-03T07:07:05.835Z,89.83
2022-11-03T07:08:05.808Z,89.28
2022-11-03T07:09:05.800Z,89.38
2022-11-03T07:10:05.783Z,89.28
2022-11-03T07:11:05.792Z,89.03
2022-11-03T07:12:05.767Z,89.13
2022-11-03T07:13:07.305Z,88.31
2022-11-03T07:14:06.761Z,88.92
2022-11-03T07:16:06.757Z,88.41
2022-11-03T07:17:05.735Z,88.51
2022-11-03T07:18:06.159Z,88.82
2022-11-03T07:19:05.723Z,88.62
2022-11-03T07:20:05.718Z,87.59
2022-11-03T07:21:05.720Z,86.77
2022-11-03T07:22:05.747Z,87.07
2022-11-03T07:23:05.691Z,87.34
2022-11-03T07:24:05.692Z,86.62
2022-11-03T07:25:05.742Z,86.72
2022-11-03T07:26:05.679Z,87.04
2022-11-03T07:27:05.688Z,86.52
2022-11-03T07:28:06.053Z,85.80
2022-11-03T07:29:05.669Z,85.90
2022-11-03T07:30:05.651Z,85.49
2022-11-03T07:31:05.650Z,85.66
2022-11-03T07:32:05.651Z,85.49
2022-11-03T07:33:05.624Z,85.35
2022-11-03T07:34:05.648Z,85.14
2022-11-03T07:35:05.616Z,85.55
2022-11-03T07:36:20.990Z,85.25
2022-11-03T07:37:07.666Z,85.76
2022-11-03T07:38:05.883Z,85.62
2022-11-03T07:39:05.632Z,85.41
2022-11-03T07:40:05.576Z,85.62
2022-11-03T07:41:05.567Z,85.72
2022-11-03T07:42:05.565Z,85.27
2022-11-03T07:43:05.575Z,85.52
2022-11-03T07:44:05.538Z,85.62
2022-11-03T07:45:05.543Z,85.27
2022-11-03T07:46:05.558Z,85.23
2022-11-03T07:47:05.526Z,85.54
2022-11-03T07:48:05.958Z,85.33
2022-11-03T07:49:05.516Z,85.03
2022-11-03T07:50:05.515Z,84.58
2022-11-03T07:51:05.512Z,84.68
2022-11-03T07:52:05.492Z,84.58
2022-11-03T07:53:05.487Z,84.37
2022-11-03T07:54:05.472Z,83.92
2022-11-03T07:55:05.458Z,83.82
2022-11-03T07:56:06.558Z,83.92
2022-11-03T07:57:05.456Z,83.47
2022-11-03T07:58:05.711Z,83.44
2022-11-03T07:59:05.444Z,83.03
2022-11-03T08:00:09.032Z,82.71
2022-11-03T08:01:06.451Z,81.49
2022-11-03T08:02:05.550Z,81.56
2022-11-03T08:03:05.867Z,81.56
2022-11-03T08:04:05.416Z,81.45
2022-11-03T08:05:05.443Z,80.12
2022-11-03T08:06:07.514Z,80.49
2022-11-03T08:07:05.379Z,81.10
2022-11-03T08:08:05.704Z,80.56
2022-11-03T08:09:05.383Z,81.17
2022-11-03T08:10:05.357Z,80.32
2022-11-03T08:11:05.404Z,79.19
2022-11-03T08:12:05.340Z,78.99
2022-11-03T08:13:05.646Z,78.34
2022-11-03T08:14:05.339Z,78.09
2022-11-03T08:15:05.339Z,76.77
2022-11-03T08:16:05.323Z,77.08
2022-11-03T08:17:05.310Z,77.65
2022-11-03T08:18:05.303Z,78.23
2022-11-03T08:19:05.302Z,77.78
2022-11-03T08:20:05.304Z,76.90
2022-11-03T08:21:05.280Z,76.56
2022-11-03T08:22:05.275Z,75.16
2022-11-03T08:23:24.784Z,76.85
2022-11-03T08:24:07.261Z,74.30
2022-11-03T08:25:05.259Z,73.09
2022-11-03T08:26:05.277Z,72.08
2022-11-03T08:27:05.246Z,69.62
2022-11-03T08:28:05.243Z,66.56
2022-11-03T08:29:05.229Z,63.98
2022-11-03T08:30:05.216Z,62.84
2022-11-03T08:31:09.489Z,64.29
2022-11-03T08:32:07.208Z,62.92
2022-11-03T08:33:05.650Z,59.17
2022-11-03T08:34:05.183Z,54.96
2022-11-03T08:35:05.175Z,56.86
2022-11-03T08:36:05.178Z,57.24
2022-11-03T08:37:05.182Z,57.31
2022-11-03T08:38:05.592Z,57.83
2022-11-03T08:39:05.162Z,54.72
2022-11-03T08:40:05.146Z,50.77
2022-11-03T08:41:05.163Z,50.32
2022-11-03T08:42:05.147Z,48.80
2022-11-03T08:43:05.138Z,48.25
2022-11-03T08:44:05.119Z,49.03
2022-11-03T08:45:05.123Z,50.50
2022-11-03T08:46:13.870Z,45.92
2022-11-03T08:47:07.148Z,46.36
2022-11-03T08:48:05.620Z,47.36
2022-11-03T08:49:05.096Z,47.28
2022-11-03T08:50:05.082Z,47.68
2022-11-03T08:51:05.069Z,45.93
2022-11-03T08:52:05.058Z,47.35
2022-11-03T08:53:05.056Z,48.60
2022-11-03T08:54:05.060Z,48.92
2022-11-03T08:55:05.031Z,48.92
2022-11-03T08:56:08.880Z,48.69
2022-11-03T08:57:05.036Z,50.16
2022-11-03T08:58:05.440Z,49.08
2022-11-03T08:59:05.033Z,50.11
2022-11-03T09:00:05.008Z,50.34
2022-11-03T09:01:05.004Z,51.06
2022-11-03T09:02:05.034Z,50.89
2022-11-03T09:03:05.001Z,50.91
2022-11-03T09:04:05.070Z,52.17
2022-11-03T09:05:04.982Z,52.69
2022-11-03T09:06:04.966Z,53.05
2022-11-03T09:07:04.951Z,53.98
2022-11-03T09:10:24.791Z,55.31
2022-11-03T09:11:06.942Z,56.62
2022-11-03T09:12:04.933Z,56.52
2022-11-03T09:13:05.235Z,57.03
2022-11-03T09:14:04.920Z,56.45
2022-11-03T09:15:04.911Z,55.84
2022-11-03T09:16:04.878Z,57.28
2022-11-03T09:17:04.904Z,57.89
2022-11-03T09:18:05.056Z,56.98
2022-11-03T09:19:04.866Z,58.12
2022-11-03T09:20:04.870Z,58.14
2022-11-03T09:21:04.884Z,58.52
2022-11-03T09:22:04.853Z,58.25
2022-11-03T09:23:04.843Z,58.95
2022-11-03T09:24:04.855Z,59.15
2022-11-03T09:25:04.823Z,59.25
2022-11-03T09:26:04.846Z,59.35
2022-11-03T09:27:04.818Z,59.38
2022-11-03T09:28:05.169Z,59.89
2022-11-03T09:29:04.802Z,59.58
2022-11-03T09:30:13.136Z,60.82
2022-11-03T09:31:06.801Z,60.82
2022-11-03T09:32:04.790Z,60.62
2022-11-03T09:33:04.771Z,61.20
2022-11-03T09:34:05.793Z,61.10
2022-11-03T09:35:04.758Z,61.85
2022-11-03T09:36:04.751Z,59.70
2022-11-03T09:37:04.743Z,61.49
2022-11-03T09:38:04.990Z,59.52
2022-11-03T09:39:04.739Z,58.01
2022-11-03T09:40:04.719Z,57.50
2022-11-03T09:41:13.443Z,58.44
2022-11-03T09:42:05.711Z,58.03
2022-11-03T09:43:05.104Z,59.34
2022-11-03T09:44:04.703Z,58.47
2022-11-03T09:45:04.690Z,58.97
2022-11-03T09:46:04.692Z,59.37
2022-11-03T09:47:04.685Z,58.14
2022-11-03T09:48:05.111Z,57.98
2022-11-03T09:49:04.679Z,56.62
2022-11-03T09:50:04.669Z,56.46
2022-11-03T09:51:04.654Z,56.56
2022-11-03T09:52:04.689Z,54.65
2022-11-03T09:53:04.936Z,55.08
2022-11-03T09:54:04.655Z,55.51
2022-11-03T09:55:04.620Z,55.81
2022-11-03T09:56:04.610Z,56.64
2022-11-03T09:57:04.608Z,56.77
2022-11-03T09:58:04.923Z,56.87
2022-11-03T09:59:04.581Z,57.04
2022-11-03T10:00:04.596Z,57.55
2022-11-03T10:01:04.627Z,57.45
2022-11-03T10:02:04.749Z,57.24
2022-11-03T10:03:05.082Z,57.07
2022-11-03T10:04:04.551Z,57.37
2022-11-03T10:05:10.694Z,57.07
2022-11-03T10:06:09.651Z,57.68
2022-11-03T10:07:05.530Z,57.98
2022-11-03T10:08:04.523Z,57.88
2022-11-03T10:09:04.512Z,58.48
2022-11-03T10:10:05.631Z,57.88
2022-11-03T10:11:04.519Z,58.28
2022-11-03T10:12:04.505Z,58.28
2022-11-03T10:13:04.873Z,57.95
2022-11-03T10:14:04.478Z,58.35
2022-11-03T10:15:04.474Z,57.98
2022-11-03T10:16:04.478Z,57.85
2022-11-03T10:17:04.455Z,57.48
2022-11-03T10:18:04.458Z,58.07
2022-11-03T10:19:04.459Z,58.51
2022-11-03T10:20:04.443Z,58.48
2022-11-03T10:21:04.456Z,58.01
2022-11-03T10:22:04.435Z,59.44
2022-11-03T10:23:04.800Z,59.75
2022-11-03T10:24:04.411Z,60.32
2022-11-03T10:25:05.415Z,59.52
2022-11-03T10:26:04.411Z,59.39
2022-11-03T10:27:04.390Z,59.56
2022-11-03T10:28:04.390Z,59.74
2022-11-03T10:29:04.523Z,58.12
2022-11-03T10:30:04.371Z,57.62
2022-11-03T10:31:12.975Z,57.70
2022-11-03T10:32:06.377Z,57.92
2022-11-03T10:33:04.595Z,58.58
2022-11-03T10:34:04.357Z,59.47
2022-11-03T10:35:04.338Z,61.77
2022-11-03T10:36:04.330Z,63.35
2022-11-03T10:37:04.339Z,64.52
2022-11-03T10:38:04.338Z,65.23
2022-11-03T10:39:04.322Z,66.81
2022-11-03T10:40:06.932Z,66.54
2022-11-03T10:41:04.303Z,67.58
2022-11-03T10:42:04.305Z,68.23
2022-11-03T10:43:04.631Z,67.41
2022-11-03T10:44:04.282Z,67.21
2022-11-03T10:45:04.326Z,67.55
2022-11-03T10:46:04.268Z,69.10
2022-11-03T10:47:04.246Z,70.42
2022-11-03T10:48:04.267Z,70.11
2022-11-03T10:49:04.319Z,70.25
2022-11-03T10:50:04.242Z,69.74
2022-11-03T10:51:04.226Z,70.65
2022-11-03T10:52:04.215Z,70.59
2022-11-03T10:53:04.429Z,71.30
2022-11-03T10:54:04.205Z,71.23
2022-11-03T10:55:04.206Z,71.50
2022-11-03T10:56:04.190Z,71.09
2022-11-03T10:57:04.202Z,71.40
2022-11-03T10:58:04.180Z,70.99
2022-11-03T10:59:04.187Z,71.20
2022-11-03T11:00:04.162Z,71.23
2022-11-03T11:01:04.217Z,72.21
2022-11-03T11:02:04.284Z,71.73
2022-11-03T11:03:04.625Z,71.73
2022-11-03T11:04:04.252Z,71.94
2022-11-03T11:05:04.147Z,70.62
2022-11-03T11:06:04.115Z,70.82
2022-11-03T11:07:04.113Z,71.40
2022-11-03T11:08:04.145Z,72.04
2022-11-03T11:09:04.098Z,72.04
2022-11-03T11:10:04.122Z,71.43
2022-11-03T11:11:04.082Z,71.12
2022-11-03T11:12:04.087Z,70.62
2022-11-03T11:13:04.314Z,71.12
2022-11-03T11:14:04.062Z,71.33
2022-11-03T11:15:04.063Z,71.23
2022-11-03T11:16:04.047Z,70.82
2022-11-03T11:17:04.049Z,71.23
2022-11-03T11:18:04.038Z,71.43
2022-11-03T11:19:04.022Z,71.64
2022-11-03T11:20:04.014Z,72.04
2022-11-03T11:21:04.008Z,71.64
2022-11-03T11:22:04.028Z,70.82
2022-11-03T11:23:04.120Z,71.33
2022-11-03T11:24:03.987Z,71.03
2022-11-03T11:25:03.984Z,70.82
2022-11-03T11:26:03.970Z,71.84
2022-11-03T11:27:03.982Z,71.94
2022-11-03T11:28:03.958Z,71.23
2022-11-03T11:29:03.948Z,71.53
2022-11-03T11:30:03.941Z,71.33
2022-11-03T11:31:03.933Z,71.53
2022-11-03T11:32:03.928Z,70.92
2022-11-03T11:33:04.172Z,70.92
2022-11-03T11:34:03.918Z,71.84
2022-11-03T11:35:03.911Z,71.84
2022-11-03T11:36:03.908Z,71.91
2022-11-03T11:37:03.893Z,71.50
2022-11-03T11:38:03.902Z,71.91
2022-11-03T11:39:03.866Z,70.59
2022-11-03T11:40:03.866Z,70.99
2022-11-03T11:41:03.860Z,71.26
2022-11-03T11:42:03.849Z,70.65
2022-11-03T11:43:04.111Z,70.86
2022-11-03T11:44:03.838Z,71.57
2022-11-03T11:45:03.833Z,71.13
2022-11-03T11:46:03.819Z,70.11
2022-11-03T11:47:03.813Z,70.21
2022-11-03T11:48:03.806Z,69.17
2022-11-03T11:49:03.806Z,69.78
2022-11-03T11:50:03.799Z,70.35
2022-11-03T11:51:03.775Z,69.95
2022-11-03T11:52:03.789Z,68.96
2022-11-03T11:53:04.007Z,70.05
2022-11-03T11:54:17.587Z,69.10
2022-11-03T11:55:05.749Z,68.02
2022-11-03T11:56:03.743Z,67.92
2022-11-03T11:57:03.747Z,69.10
2022-11-03T11:58:03.731Z,68.32
2022-11-03T11:59:03.718Z,69.17
2022-11-03T12:00:03.717Z,70.59
2022-11-03T12:01:03.709Z,70.72
2022-11-03T12:02:03.716Z,69.81
2022-11-03T12:03:03.822Z,70.42
2022-11-03T12:04:03.792Z,70.11
2022-11-03T12:05:03.673Z,70.52
2022-11-03T12:06:03.666Z,70.28
2022-11-03T12:07:03.666Z,69.98
2022-11-03T12:08:03.942Z,70.62
2022-11-03T12:09:03.647Z,70.18
2022-11-03T12:10:03.681Z,70.28
2022-11-03T12:11:03.703Z,70.76
2022-11-03T12:12:08.670Z,70.35
2022-11-03T12:13:05.611Z,70.32
2022-11-03T12:14:03.610Z,67.76
2022-11-03T12:15:03.605Z,68.06
2022-11-03T12:16:03.602Z,67.52
2022-11-03T12:17:03.593Z,67.29
2022-11-03T12:18:03.775Z,67.49
2022-11-03T12:19:03.576Z,67.29
2022-11-03T12:20:03.573Z,67.49
2022-11-03T12:21:03.556Z,67.29
2022-11-03T12:22:03.568Z,67.49
2022-11-03T12:23:03.565Z,68.30
2022-11-03T12:24:03.543Z,67.08
2022-11-03T12:25:03.544Z,67.05
2022-11-03T12:26:03.534Z,67.08
2022-11-03T12:27:03.554Z,66.81
2022-11-03T12:28:03.566Z,68.02
2022-11-03T12:29:03.509Z,67.52
2022-11-03T12:30:03.510Z,68.06
2022-11-03T12:31:03.503Z,67.65
2022-11-03T12:32:03.489Z,69.00
2022-11-03T12:33:03.493Z,68.77
2022-11-03T12:34:03.487Z,69.17
2022-11-03T12:35:03.483Z,69.61
2022-11-03T12:36:03.465Z,69.20
2022-11-03T12:37:03.452Z,69.51
2022-11-03T12:38:03.465Z,69.61
2022-11-03T12:39:03.441Z,69.00
2022-11-03T12:40:03.470Z,68.70
2022-11-03T12:41:03.429Z,69.74
2022-11-03T12:42:03.419Z,70.05
2022-11-03T12:43:03.411Z,70.56
2022-11-03T12:44:03.531Z,69.74
2022-11-03T12:45:03.400Z,70.12
2022-11-03T12:46:03.412Z,69.84
2022-11-03T12:47:03.384Z,70.21
2022-11-03T12:48:03.387Z,70.25
2022-11-03T12:49:03.385Z,69.92
2022-11-03T12:50:03.369Z,70.32
2022-11-03T12:51:03.352Z,70.12
2022-11-03T12:52:07.779Z,69.92
2022-11-03T12:53:04.746Z,70.18
2022-11-03T12:54:03.389Z,69.92
2022-11-03T12:55:03.323Z,70.12
2022-11-03T12:56:03.317Z,69.51
2022-11-03T12:57:03.448Z,68.80
2022-11-03T12:58:03.308Z,69.95
2022-11-03T12:59:03.302Z,69.61
2022-11-03T13:00:03.298Z,70.42